Overview Statistics Trail Chart Weather Telemetry Raw packets
 

This is the latest recevied packets stored in our database for station/object DB9VE-12. If no packets are shown the sender has not sent any packets the latest 24 hours.

If you compare the raw packets with similar data from other websites it may differ (especially the path), the reason is that we are not collecting packets from the same APRS-IS servers. Each APRS-IS server performes duplicate filtering, and which packet that is considered to be a duplicate may differ depending on which APRS-IS server you receive your data from.

<< 1 2 3 4 >>

1778180466: DB9VE-12>APRSMC,TCPIP*,qAR,DL4VCM-12:T#687,973.0,20.1,40.6,1012.6,0.0,00000000

1778180466: DB9VE-12>APRSMC,TCPIP*,qAR,DL4VCM-12:!4919.21N/00639.37E-JN39HH#DB9VE/B=007/A=001191

1778180044: DB9VE-12>APRSMC,TCPIP*,qAR,DL4VCM-12:T#686,973.0,20.2,40.5,1012.6,0.0,00000000

1778180044: DB9VE-12>APRSMC,TCPIP*,qAR,DL4VCM-12:!4919.21N/00639.38E-JN39HH#DB9VE/B=007/A=001198

1778178834: DB9VE-12>APRS,qAR,F4BKB-10:!/5T9[P1)4- P[JN39HH

1778178270: DB9VE-12>APRSMC,TCPIP*,qAR,DL4VCM-12:T#685,972.8,20.5,40.1,1012.4,0.0,00000000

1778178270: DB9VE-12>APRSMC,TCPIP*,qAR,DL4VCM-12:!4919.21N/00639.37E-JN39HH#DB9VE/B=007/A=001220

1778176136: DB9VE-12>APRSMC,TCPIP*,qAR,DL4VCM-12:!4919.21N/00639.37E-JN39HH#DB9VE/B=008/A=001348

1778176135: DB9VE-12>APRSMC,TCPIP*,qAR,DL4VCM-12:T#684,972.7,20.8,39.7,1012.3,0.0,00000000

1778176128: DB9VE-12>APRS,qAR,F4BKB-10:!/5T:&P1)G- P[JN39HH

1778175882: DB9VE-12>APRSMC,TCPIP*,qAR,DL4VCM-12:T#683,972.6,20.8,39.7,1012.2,0.0,00000000

1778175882: DB9VE-12>APRSMC,TCPIP*,qAR,DL4VCM-12:!4919.21N/00639.37E-JN39HH#DB9VE/B=008/A=001266

1778173061: DB9VE-12>APRSMC,TCPIP*,qAR,DL4VCM-12:T#682,972.6,21.1,38.6,1012.1,0.0,00000000

1778173061: DB9VE-12>APRSMC,TCPIP*,qAR,DL4VCM-12:!4919.21N/00639.38E-JN39HH#DB9VE/B=008/A=001247

1778169700: DB9VE-12>APRSMC,TCPIP*,qAR,DL4VCM-12:T#681,972.5,21.3,37.8,1012.0,0.0,00000000

1778169700: DB9VE-12>APRSMC,TCPIP*,qAR,DL4VCM-12::DB9VE-12 :EQNS.0,1,0,0,1,0,0,1,0,0,1,0,0,1,0

1778169700: DB9VE-12>APRSMC,TCPIP*,qAR,DL4VCM-12::DB9VE-12 :UNIT.hPa,C deg,%,hPa,C deg,Y/N,O/N,O/N,O/N,O/N,O/N,O/N,O/N

1778169700: DB9VE-12>APRSMC,TCPIP*,qAR,DL4VCM-12::DB9VE-12 :PARM.Press,Temp.in,Hum,QNH,Temp.out,track,-,-,-,-,-,-,-

1778169700: DB9VE-12>APRSMC,TCPIP*,qAR,DL4VCM-12:!4919.21N/00639.37E-JN39HH#DB9VE/B=009/A=001198

1778169013: DB9VE-12>APRSMC,TCPIP*,qAR,DL4VCM-12:T#680,972.5,21.2,37.8,1012.0,0.0,00000000

1778169013: DB9VE-12>APRSMC,TCPIP*,qAR,DL4VCM-12:!4919.21N/00639.37E-JN39HH#DB9VE/B=009/A=001191

1778166508: DB9VE-12>APRSMC,TCPIP*,qAR,DL4VCM-12:T#679,972.4,21.1,38.3,1011.9,0.0,00000000

1778166508: DB9VE-12>APRSMC,TCPIP*,qAR,DL4VCM-12:!4919.21N/00639.38E-JN39HH#DB9VE/B=009/A=001220

1778164688: DB9VE-12>APRSMC,TCPIP*,qAR,DL4VCM-12:T#678,972.5,21.2,37.7,1012.0,0.0,00000000

1778164688: DB9VE-12>APRSMC,TCPIP*,qAR,DL4VCM-12:!4919.21N/00639.37E-JN39HH#DB9VE/B=009/A=001260